Time;durP1;ratioP1;P1;durP2;ratioP2;P2;SDS_P1;SDS_P2;PMS_P1;PMS_P2;Temp;Humidity;BMP_temperature;BMP_pressure;BME280_temperature;BME280_humidity;BME280_pressure;Samples;Min_cycle;Max_cycle;Signal;HPM_P1;HPM_P2
2023/04/27 00:02:12;;;;;;;5.40;4.05;;;;;;;10.28;63.92;98389.84;7378321;19;19914;-75
2023/04/27 00:04:39;;;;;;;4.97;3.97;;;;;;;10.29;65.24;98392.34;7375957;19;19950;-75
2023/04/27 00:07:06;;;;;;;8.43;4.50;;;;;;;10.25;65.68;98390.09;7385687;19;19923;-75
2023/04/27 00:09:33;;;;;;;6.35;4.43;;;;;;;10.24;65.62;98383.16;7371987;19;19938;-75
2023/04/27 00:12:00;;;;;;;4.78;4.32;;;;;;;10.31;65.12;98390.34;7380880;19;19923;-75
2023/04/27 00:14:27;;;;;;;5.18;4.05;;;;;;;10.33;64.29;98388.38;7388402;19;19923;-75
2023/04/27 00:16:54;;;;;;;5.82;4.30;;;;;;;10.38;64.94;98385.28;7394165;19;19922;-75
2023/04/27 00:19:21;;;;;;;5.75;4.75;;;;;;;10.36;64.33;98373.19;7387844;19;20344;-75
2023/04/27 00:21:48;;;;;;;6.50;5.70;;;;;;;10.38;64.51;98379.16;7385378;19;19925;-76
2023/04/27 00:24:15;;;;;;;5.13;4.38;;;;;;;10.39;65.22;98376.34;7385504;19;19915;-74
2023/04/27 00:26:42;;;;;;;4.70;4.30;;;;;;;10.40;64.57;98371.88;7392493;19;19935;-75
2023/04/27 00:29:09;;;;;;;5.57;4.78;;;;;;;10.38;64.44;98377.34;7396587;19;19914;-75
2023/04/27 00:31:37;;;;;;;5.25;4.60;;;;;;;10.38;63.91;98364.13;7385753;19;20004;-74
2023/04/27 00:34:04;;;;;;;4.63;3.75;;;;;;;10.33;63.22;98369.03;7392688;19;19947;-74
2023/04/27 00:36:34;;;;;;;4.85;3.75;;;;;;;10.32;63.45;98377.94;7387309;19;20407;-75
2023/04/27 00:39:02;;;;;;;4.68;4.15;;;;;;;10.29;65.07;98372.97;7385785;19;19922;-74
2023/04/27 00:41:31;;;;;;;6.78;4.68;;;;;;;10.27;64.63;98373.13;7370967;19;19918;-75
2023/04/27 00:43:58;;;;;;;6.18;4.25;;;;;;;10.26;64.58;98362.69;7386641;19;19949;-75
2023/04/27 00:46:26;;;;;;;6.60;4.35;;;;;;;10.23;64.16;98361.16;7376767;19;19982;-75
2023/04/27 00:48:54;;;;;;;4.90;4.03;;;;;;;10.25;65.18;98359.22;7382243;19;19925;-75
2023/04/27 00:51:21;;;;;;;4.15;3.70;;;;;;;10.27;64.98;98354.63;7380151;19;19915;-75
2023/04/27 00:53:50;;;;;;;5.25;4.53;;;;;;;10.31;65.15;98357.78;7386333;19;20340;-75
2023/04/27 00:56:17;;;;;;;6.65;6.07;;;;;;;10.29;64.82;98359.75;7377700;19;20919;-75
2023/04/27 00:58:44;;;;;;;8.85;8.25;;;;;;;10.32;64.37;98364.72;7388204;19;20281;-75
2023/04/27 01:01:11;;;;;;;6.45;5.85;;;;;;;10.28;64.24;98358.94;7383305;19;20313;-75
2023/04/27 01:03:38;;;;;;;5.50;4.00;;;;;;;10.26;64.64;98360.03;7382373;19;20558;-75
2023/04/27 01:06:05;;;;;;;5.70;4.53;;;;;;;10.27;65.36;98359.06;7385483;19;19922;-75
2023/04/27 01:08:32;;;;;;;7.70;6.25;;;;;;;10.24;64.72;98362.00;7376753;19;20290;-75
2023/04/27 01:11:00;;;;;;;4.40;4.00;;;;;;;10.18;64.53;98359.97;7378354;19;20234;-75
2023/04/27 01:13:27;;;;;;;5.22;4.72;;;;;;;10.06;63.52;98365.50;7375591;19;20675;-75
2023/04/27 01:15:54;;;;;;;6.20;4.10;;;;;;;9.95;63.07;98368.38;7390342;19;19930;-75
2023/04/27 01:18:22;;;;;;;6.57;4.53;;;;;;;9.90;63.91;98360.09;7381863;19;19918;-75
2023/04/27 01:20:48;;;;;;;4.60;3.78;;;;;;;9.93;64.84;98364.25;7383463;19;19918;-75
2023/04/27 01:23:15;;;;;;;7.38;6.68;;;;;;;9.97;65.44;98376.97;7382398;19;20321;-75
2023/04/27 01:25:43;;;;;;;4.95;4.38;;;;;;;9.97;65.28;98368.22;7384329;19;19918;-75
2023/04/27 01:28:12;;;;;;;6.13;4.20;;;;;;;9.92;64.03;98368.66;7380283;19;19921;-75
2023/04/27 01:30:39;;;;;;;7.63;4.65;;;;;;;9.95;64.91;98363.06;7383942;19;19919;-75
2023/04/27 01:33:06;;;;;;;4.50;3.75;;;;;;;9.99;65.81;98360.97;7386555;19;20391;-75
2023/04/27 01:35:33;;;;;;;4.88;4.30;;;;;;;9.97;65.56;98366.41;7384227;19;19914;-75
2023/04/27 01:38:00;;;;;;;6.47;4.68;;;;;;;9.93;65.62;98365.06;7387619;19;19919;-75
2023/04/27 01:40:27;;;;;;;7.15;6.53;;;;;;;9.85;65.11;98370.28;7380348;19;20257;-74
2023/04/27 01:42:54;;;;;;;5.43;4.63;;;;;;;9.84;65.56;98358.84;7383216;19;19926;-74
2023/04/27 01:45:20;;;;;;;7.75;4.32;;;;;;;9.81;65.87;98360.97;7376445;19;19929;-75
2023/04/27 01:47:50;;;;;;;5.40;4.70;;;;;;;9.76;65.93;98368.53;7380158;19;19930;-75
2023/04/27 01:50:19;;;;;;;11.63;6.88;;;;;;;9.73;66.51;98372.31;7379160;19;20427;-75
2023/04/27 01:52:46;;;;;;;6.57;3.92;;;;;;;9.71;66.04;98370.78;7385940;19;19919;-75
2023/04/27 01:55:13;;;;;;;5.15;4.15;;;;;;;9.66;66.50;98372.09;7382615;19;19929;-75
2023/04/27 01:57:40;;;;;;;7.55;4.88;;;;;;;9.62;66.06;98368.06;7383131;19;19924;-75
2023/04/27 02:00:08;;;;;;;7.10;4.70;;;;;;;9.59;66.27;98380.75;7383709;19;19960;-75
2023/04/27 02:02:46;;;;;;;5.60;5.20;;;;;;;9.57;66.39;98372.16;7386046;19;20350;-75
2023/04/27 02:05:13;;;;;;;4.63;4.05;;;;;;;9.56;66.09;98378.41;7382575;19;19918;-75
2023/04/27 02:07:40;;;;;;;5.85;4.13;;;;;;;9.52;66.45;98377.88;7361903;19;19926;-75
2023/04/27 02:10:07;;;;;;;6.68;4.88;;;;;;;9.50;66.08;98376.34;7383943;19;19930;-75
2023/04/27 02:12:34;;;;;;;6.90;4.53;;;;;;;9.49;66.32;98378.16;7385938;19;19919;-75
2023/04/27 02:15:02;;;;;;;5.25;4.55;;;;;;;9.52;66.85;98377.88;7390242;19;19919;-75
2023/04/27 02:17:30;;;;;;;5.32;4.75;;;;;;;9.50;67.05;98379.00;7376596;19;19926;-75
2023/04/27 02:19:57;;;;;;;6.85;6.15;;;;;;;9.47;67.18;98388.03;7384670;19;20275;-75
2023/04/27 02:22:25;;;;;;;5.10;4.60;;;;;;;9.48;67.06;98392.38;7379405;19;19918;-76
2023/04/27 02:24:52;;;;;;;4.85;4.35;;;;;;;9.46;66.99;98381.09;7380841;19;19918;-76
2023/04/27 02:27:19;;;;;;;6.22;4.82;;;;;;;9.39;66.75;98387.94;7383185;19;19926;-76
2023/04/27 02:29:46;;;;;;;4.88;4.20;;;;;;;9.41;66.98;98394.75;7383011;19;19919;-76
2023/04/27 02:32:13;;;;;;;6.68;5.20;;;;;;;9.43;67.65;98389.34;7388280;19;20348;-76
2023/04/27 02:34:40;;;;;;;5.75;4.80;;;;;;;9.45;67.35;98387.34;7376477;19;19927;-76
2023/04/27 02:37:07;;;;;;;5.80;4.63;;;;;;;9.46;66.96;98394.31;7383628;19;19919;-76
2023/04/27 02:39:34;;;;;;;6.70;5.05;;;;;;;9.47;67.04;98389.84;7377637;19;19919;-74
2023/04/27 02:42:02;;;;;;;5.28;4.50;;;;;;;9.48;67.31;98392.38;7390845;19;19922;-76
2023/04/27 02:44:28;;;;;;;5.95;5.35;;;;;;;9.37;66.91;98389.91;7383366;19;20740;-76
2023/04/27 02:46:56;;;;;;;6.13;5.20;;;;;;;9.37;66.83;98392.53;7386963;19;19943;-73
2023/04/27 02:49:23;;;;;;;7.80;4.88;;;;;;;9.39;67.00;98396.69;7379280;19;20324;-73
2023/04/27 02:51:50;;;;;;;5.47;4.82;;;;;;;9.45;67.72;98392.63;7378462;19;19915;-76
2023/04/27 02:54:16;;;;;;;4.70;4.28;;;;;;;9.42;67.25;98392.94;7385778;19;19918;-76
2023/04/27 02:56:43;;;;;;;4.97;4.50;;;;;;;9.42;66.87;98398.22;7383838;19;19923;-75
2023/04/27 02:59:10;;;;;;;5.47;4.75;;;;;;;9.39;66.52;98403.78;7386264;19;19919;-76
2023/04/27 03:01:37;;;;;;;5.53;4.75;;;;;;;9.44;67.16;98402.38;7380955;19;20581;-76
2023/04/27 03:04:04;;;;;;;6.25;4.88;;;;;;;9.50;66.94;98405.41;7389301;19;20346;-76
2023/04/27 03:06:31;;;;;;;5.03;4.13;;;;;;;9.53;67.70;98395.38;7381723;19;21959;-76
2023/04/27 03:08:58;;;;;;;5.85;4.82;;;;;;;9.56;67.50;98403.00;7385363;19;19935;-75
2023/04/27 03:11:26;;;;;;;7.68;5.28;;;;;;;9.55;67.67;98403.16;7380052;19;19922;-76
2023/04/27 03:13:53;;;;;;;6.78;4.70;;;;;;;9.51;67.41;98405.25;7379463;19;20336;-76
2023/04/27 03:16:20;;;;;;;5.78;4.82;;;;;;;9.49;68.12;98404.56;7379873;19;19926;-73
2023/04/27 03:18:46;;;;;;;5.35;4.85;;;;;;;9.49;67.91;98403.75;7385756;19;20340;-76
2023/04/27 03:21:15;;;;;;;6.85;4.80;;;;;;;9.53;67.85;98405.97;7388405;19;20624;-75
2023/04/27 03:23:43;;;;;;;5.28;4.72;;;;;;;9.52;68.10;98408.72;7381638;19;19939;-76
2023/04/27 03:26:12;;;;;;;5.93;4.68;;;;;;;9.51;68.19;98413.19;7384778;19;19935;-76
2023/04/27 03:28:40;;;;;;;5.65;5.05;;;;;;;9.55;68.36;98411.91;7382360;19;19926;-74
2023/04/27 03:31:09;;;;;;;8.02;5.15;;;;;;;9.56;68.17;98410.94;7386082;19;20481;-75
2023/04/27 03:33:37;;;;;;;5.47;4.32;;;;;;;9.53;68.12;98413.03;7383304;19;20304;-75
2023/04/27 03:36:05;;;;;;;5.55;4.32;;;;;;;9.56;68.22;98412.75;7385890;19;19918;-75
2023/04/27 03:38:33;;;;;;;6.28;4.22;;;;;;;9.58;68.39;98405.47;7384254;19;19919;-76
2023/04/27 03:41:00;;;;;;;4.85;3.92;;;;;;;9.60;68.60;98404.34;7380643;19;19923;-75
2023/04/27 03:43:28;;;;;;;5.30;4.80;;;;;;;9.55;68.13;98398.69;7381811;19;19925;-75
2023/04/27 03:45:55;;;;;;;5.78;4.55;;;;;;;9.51;68.19;98407.91;7382666;19;19914;-76
2023/04/27 03:48:22;;;;;;;4.13;3.72;;;;;;;9.53;67.97;98405.97;7389221;19;19932;-76
2023/04/27 03:50:51;;;;;;;6.60;4.65;;;;;;;9.54;67.34;98401.50;7388238;19;19918;-76
2023/04/27 03:53:18;;;;;;;5.70;4.57;;;;;;;9.54;67.42;98404.97;7395777;19;20336;-76
2023/04/27 03:55:46;;;;;;;6.50;5.75;;;;;;;9.56;67.34;98413.56;7388638;19;20317;-76
2023/04/27 03:58:16;;;;;;;8.90;4.35;;;;;;;9.57;67.47;98411.75;7388605;19;19918;-76
2023/04/27 04:01:00;;;;;;;7.05;4.43;;;;;;;9.51;66.48;98407.91;7387638;19;19922;-74
2023/04/27 04:03:27;;;;;;;5.88;4.25;;;;;;;9.52;67.04;98406.91;7393048;19;19922;-74
2023/04/27 04:05:54;;;;;;;6.45;4.35;;;;;;;9.53;67.28;98405.09;7393712;19;19925;-74
2023/04/27 04:08:21;;;;;;;6.45;5.82;;;;;;;9.51;67.64;98399.97;7386429;19;19937;-74
2023/04/27 04:10:48;;;;;;;7.88;5.90;;;;;;;9.52;67.77;98409.56;7386510;19;19922;-74
2023/04/27 04:13:15;;;;;;;5.25;4.32;;;;;;;9.46;66.53;98412.81;7392557;19;20359;-75
2023/04/27 04:15:42;;;;;;;5.75;4.47;;;;;;;9.44;66.63;98410.28;7386784;19;20347;-75
2023/04/27 04:18:08;;;;;;;6.75;5.15;;;;;;;9.43;67.09;98413.94;7391137;19;20336;-75
2023/04/27 04:20:35;;;;;;;5.82;4.38;;;;;;;9.45;66.63;98413.75;7385419;19;19930;-74
2023/04/27 04:23:02;;;;;;;5.82;4.75;;;;;;;9.46;66.42;98412.81;7392477;19;19919;-74
2023/04/27 04:25:30;;;;;;;5.65;5.15;;;;;;;9.50;67.29;98415.97;7387209;19;19939;-74
2023/04/27 04:27:57;;;;;;;9.30;4.75;;;;;;;9.49;67.52;98412.50;7387581;19;19926;-74
2023/04/27 04:30:25;;;;;;;7.22;5.13;;;;;;;9.53;67.72;98421.81;7381636;19;19914;-74
2023/04/27 04:32:52;;;;;;;6.13;3.75;;;;;;;9.55;67.47;98422.47;7386392;19;20369;-74
2023/04/27 04:35:19;;;;;;;8.25;4.45;;;;;;;9.56;67.66;98416.22;7389471;19;19918;-75
2023/04/27 04:37:46;;;;;;;6.15;4.20;;;;;;;9.57;67.65;98422.31;7384569;19;19922;-74
2023/04/27 04:40:13;;;;;;;4.53;4.05;;;;;;;9.60;67.46;98414.94;7381722;19;20402;-75
2023/04/27 04:42:40;;;;;;;7.50;5.13;;;;;;;9.63;67.80;98422.53;7383126;19;19926;-75
2023/04/27 04:45:07;;;;;;;4.63;4.10;;;;;;;9.63;67.62;98422.53;7389916;19;19925;-75
2023/04/27 04:47:35;;;;;;;6.13;4.07;;;;;;;9.64;67.61;98423.41;7385253;19;19928;-75
2023/04/27 04:50:02;;;;;;;4.70;4.25;;;;;;;9.68;67.16;98424.75;7386131;19;20467;-74
2023/04/27 04:52:30;;;;;;;5.72;4.57;;;;;;;9.70;67.39;98427.25;7385875;19;20393;-75
2023/04/27 04:54:57;;;;;;;10.90;4.68;;;;;;;9.70;66.68;98427.25;7386518;19;20546;-75
2023/04/27 04:57:24;;;;;;;7.93;4.10;;;;;;;9.72;67.17;98420.03;7383384;19;20043;-75
2023/04/27 04:59:51;;;;;;;5.93;5.13;;;;;;;9.75;67.29;98425.81;7382275;19;19922;-77
2023/04/27 05:02:18;;;;;;;7.20;4.55;;;;;;;9.75;66.60;98422.34;7387900;19;19923;-76
2023/04/27 05:04:45;;;;;;;7.53;5.03;;;;;;;9.68;65.65;98422.94;7385108;19;19952;-77
2023/04/27 05:07:16;;;;;;;7.18;5.00;;;;;;;9.70;66.12;98432.53;7385806;19;19915;-75
2023/04/27 05:09:49;;;;;;;5.65;4.45;;;;;;;9.74;66.59;98433.88;7390015;19;19910;-75
2023/04/27 05:12:16;;;;;;;5.38;4.55;;;;;;;9.76;66.44;98429.28;7392232;19;19923;-76
2023/04/27 05:14:43;;;;;;;5.38;4.75;;;;;;;9.82;66.22;98439.25;7384778;19;19963;-76
2023/04/27 05:17:09;;;;;;;6.47;4.18;;;;;;;9.83;66.29;98433.00;7387677;19;19939;-76
2023/04/27 05:19:36;;;;;;;6.07;4.97;;;;;;;9.84;65.88;98434.66;7385472;19;19960;-76
2023/04/27 05:22:03;;;;;;;7.18;6.35;;;;;;;9.90;65.88;98426.16;7388310;19;20458;-76
2023/04/27 05:24:30;;;;;;;7.32;5.30;;;;;;;9.95;66.23;98431.78;7385834;19;19926;-76
2023/04/27 05:26:57;;;;;;;6.70;5.03;;;;;;;9.97;66.14;98432.47;7388132;19;20363;-77
2023/04/27 05:29:26;;;;;;;5.95;4.75;;;;;;;10.00;65.81;98434.81;7384399;19;19918;-77
2023/04/27 05:31:53;;;;;;;7.25;5.00;;;;;;;10.01;65.84;98433.03;7386144;19;20367;-77
2023/04/27 05:34:20;;;;;;;5.03;4.53;;;;;;;10.01;65.50;98430.38;7387423;19;19941;-77
2023/04/27 05:36:46;;;;;;;8.32;4.95;;;;;;;10.07;66.09;98435.88;7382788;19;19922;-76
2023/04/27 05:39:13;;;;;;;7.53;5.60;;;;;;;10.06;65.55;98439.53;7384599;19;19922;-77
2023/04/27 05:41:40;;;;;;;4.78;4.18;;;;;;;10.05;65.06;98440.47;7387312;19;20332;-77
2023/04/27 05:44:07;;;;;;;5.93;4.50;;;;;;;10.20;65.50;98442.63;7390058;19;20332;-77
2023/04/27 05:46:34;;;;;;;7.05;4.20;;;;;;;10.17;64.87;98440.28;7386827;19;19933;-76
2023/04/27 05:49:04;;;;;;;6.00;4.30;;;;;;;10.18;64.88;98445.41;7385543;19;19919;-77
2023/04/27 05:51:32;;;;;;;6.32;4.82;;;;;;;10.13;64.31;98445.00;7381647;19;20372;-76
2023/04/27 05:54:00;;;;;;;5.43;4.85;;;;;;;10.31;64.85;98450.34;7388211;19;19935;-76
2023/04/27 05:56:27;;;;;;;7.88;4.43;;;;;;;10.36;64.64;98450.72;7383047;19;19914;-77
2023/04/27 05:58:54;;;;;;;7.75;5.18;;;;;;;10.37;64.41;98455.00;7387139;19;19918;-75
2023/04/27 06:01:21;;;;;;;6.07;4.35;;;;;;;10.40;64.53;98454.72;7388895;19;19927;-75
2023/04/27 06:03:47;;;;;;;7.60;4.30;;;;;;;10.57;64.39;98468.09;7386184;19;19915;-75
2023/04/27 06:06:14;;;;;;;5.30;4.25;;;;;;;10.69;64.76;98466.84;7391035;19;19932;-75
2023/04/27 06:08:42;;;;;;;6.70;6.10;;;;;;;10.74;64.13;98462.75;7382522;19;20251;-76
2023/04/27 06:11:08;;;;;;;8.23;5.10;;;;;;;10.86;64.16;98473.09;7386953;19;20332;-76
2023/04/27 06:13:35;;;;;;;4.82;3.80;;;;;;;10.87;63.83;98472.91;7388940;19;19918;-75
2023/04/27 06:16:02;;;;;;;5.45;4.28;;;;;;;10.97;63.38;98470.19;7389863;19;19925;-75
2023/04/27 06:18:30;;;;;;;6.25;4.20;;;;;;;11.02;62.80;98467.06;7387096;19;19946;-75
2023/04/27 06:20:58;;;;;;;4.65;3.75;;;;;;;11.13;62.96;98472.91;7384734;19;19947;-76
2023/04/27 06:23:25;;;;;;;4.82;4.25;;;;;;;11.24;63.17;98473.63;7385370;19;19947;-76
2023/04/27 06:25:52;;;;;;;8.68;4.95;;;;;;;11.28;62.50;98473.16;7367508;19;19911;-76
2023/04/27 06:28:19;;;;;;;8.05;4.57;;;;;;;11.40;62.84;98469.28;7382924;19;19919;-76
2023/04/27 06:30:46;;;;;;;6.07;5.07;;;;;;;11.43;61.46;98476.91;7380458;19;20361;-76
2023/04/27 06:33:12;;;;;;;7.88;4.40;;;;;;;11.52;61.17;98479.56;7387306;19;19915;-76
2023/04/27 06:35:40;;;;;;;6.57;5.28;;;;;;;11.60;61.78;98476.97;7381235;19;20241;-76
2023/04/27 06:38:06;;;;;;;5.60;3.97;;;;;;;11.67;61.25;98479.81;7382871;19;19919;-76
2023/04/27 06:40:34;;;;;;;5.32;3.90;;;;;;;11.69;60.91;98475.16;7378831;19;19914;-76
2023/04/27 06:43:01;;;;;;;7.85;3.90;;;;;;;11.80;60.41;98472.25;7382680;19;19930;-76
2023/04/27 06:45:28;;;;;;;5.90;3.97;;;;;;;11.90;59.59;98475.63;7381959;19;20420;-75
2023/04/27 06:47:55;;;;;;;5.15;3.67;;;;;;;11.93;59.25;98471.78;7382939;19;19931;-77
2023/04/27 06:50:21;;;;;;;7.40;5.53;;;;;;;12.06;58.18;98475.66;7383841;19;20435;-75
2023/04/27 06:52:48;;;;;;;4.53;3.45;;;;;;;12.06;57.74;98473.00;7382200;19;20934;-75
2023/04/27 06:55:15;;;;;;;7.05;4.00;;;;;;;12.22;59.19;98477.50;7384847;19;19926;-76
2023/04/27 06:57:41;;;;;;;4.60;3.63;;;;;;;12.40;57.52;98476.50;7375628;19;19918;-76
2023/04/27 07:00:09;;;;;;;5.05;3.85;;;;;;;12.40;57.80;98482.66;7381233;19;19923;-75
2023/04/27 07:02:36;;;;;;;4.88;4.32;;;;;;;12.32;57.69;98487.94;7381858;19;19922;-75
2023/04/27 07:05:03;;;;;;;4.45;3.83;;;;;;;12.37;57.91;98487.44;7385224;19;19934;-76
2023/04/27 07:07:30;;;;;;;6.45;4.05;;;;;;;12.48;58.06;98487.13;7382030;19;19915;-75
2023/04/27 07:09:56;;;;;;;5.35;3.90;;;;;;;12.54;57.69;98488.31;7380882;19;19927;-75
2023/04/27 07:12:23;;;;;;;6.45;4.60;;;;;;;12.53;57.37;98495.41;7385061;19;19922;-75
2023/04/27 07:14:50;;;;;;;8.48;3.80;;;;;;;12.56;57.64;98491.59;7380023;19;19914;-75
2023/04/27 07:17:17;;;;;;;7.68;4.28;;;;;;;12.71;56.64;98498.75;7382279;19;19930;-75
2023/04/27 07:19:43;;;;;;;6.53;3.40;;;;;;;12.69;57.02;98500.75;7380711;19;19914;-75
2023/04/27 07:22:10;;;;;;;5.45;3.97;;;;;;;12.81;56.59;98489.78;7384784;19;19926;-75
2023/04/27 07:24:37;;;;;;;5.15;3.72;;;;;;;12.91;57.00;98493.09;7385483;19;19925;-75
2023/04/27 07:27:04;;;;;;;5.00;3.95;;;;;;;13.10;55.47;98486.59;7391903;19;19939;-75
2023/04/27 07:29:30;;;;;;;6.50;3.90;;;;;;;13.25;55.47;98482.25;7385970;19;19919;-76
2023/04/27 07:31:58;;;;;;;7.32;3.75;;;;;;;13.38;55.67;98481.75;7387009;19;19922;-75
2023/04/27 07:34:25;;;;;;;6.82;4.63;;;;;;;13.30;56.23;98482.59;7390090;19;19923;-75
2023/04/27 07:36:58;;;;;;;4.88;3.67;;;;;;;13.51;56.25;98476.72;7390613;19;20030;-75
2023/04/27 07:39:25;;;;;;;7.63;5.30;;;;;;;13.56;55.94;98485.00;7389933;19;20217;-75
2023/04/27 07:41:52;;;;;;;8.20;4.60;;;;;;;13.59;54.89;98474.03;7386116;19;20315;-75
2023/04/27 07:44:20;;;;;;;4.05;3.58;;;;;;;13.52;55.26;98475.72;7389855;19;19986;-75
2023/04/27 07:46:47;;;;;;;8.40;4.38;;;;;;;13.46;55.50;98481.72;7388870;19;19981;-74
2023/04/27 07:49:15;;;;;;;5.10;3.50;;;;;;;13.42;55.57;98474.25;7387327;19;19927;-75
2023/04/27 07:51:42;;;;;;;8.05;4.05;;;;;;;13.42;54.03;98480.41;7384842;19;19926;-74
2023/04/27 07:54:09;;;;;;;7.25;3.90;;;;;;;13.54;54.98;98471.06;7388914;19;20778;-75
2023/04/27 07:56:36;;;;;;;5.32;3.63;;;;;;;13.64;53.03;98481.50;7389047;19;19918;-74
2023/04/27 07:59:02;;;;;;;6.18;4.00;;;;;;;13.69;55.98;98478.28;7389977;19;19922;-75
2023/04/27 08:01:29;;;;;;;6.72;5.13;;;;;;;13.80;54.19;98483.25;7386708;19;19948;-75
2023/04/27 08:03:56;;;;;;;8.05;4.13;;;;;;;13.70;56.56;98474.66;7388761;19;19919;-76
2023/04/27 08:06:24;;;;;;;6.78;6.18;;;;;;;13.78;57.21;98482.59;7389455;19;20244;-75
2023/04/27 08:08:52;;;;;;;5.25;4.07;;;;;;;13.83;54.80;98477.59;7387862;19;19922;-75
2023/04/27 08:11:18;;;;;;;7.38;3.83;;;;;;;13.80;53.06;98470.78;7390970;19;19937;-75
2023/04/27 08:13:45;;;;;;;6.30;3.80;;;;;;;13.61;52.08;98468.53;7390401;19;19926;-75
2023/04/27 08:16:12;;;;;;;4.13;3.53;;;;;;;13.50;55.59;98475.03;7391759;19;19926;-75
2023/04/27 08:18:39;;;;;;;8.13;4.55;;;;;;;13.56;55.67;98478.84;7388460;19;19914;-75
2023/04/27 08:21:05;;;;;;;4.53;4.13;;;;;;;13.74;56.74;98475.94;7386902;19;19923;-75
2023/04/27 08:23:32;;;;;;;7.28;4.53;;;;;;;13.87;53.61;98470.06;7385018;19;19919;-75
2023/04/27 08:25:59;;;;;;;5.07;4.18;;;;;;;14.02;54.47;98466.50;7386481;19;19939;-76
2023/04/27 08:28:27;;;;;;;7.63;4.85;;;;;;;14.08;53.43;98469.47;7390688;19;19922;-76
2023/04/27 08:30:53;;;;;;;4.80;4.07;;;;;;;14.32;54.17;98471.13;7383643;19;19922;-75
2023/04/27 08:33:21;;;;;;;10.38;4.30;;;;;;;14.41;52.68;98464.75;7389986;19;20363;-75
2023/04/27 08:35:48;;;;;;;6.80;3.83;;;;;;;14.21;53.82;98457.22;7386906;19;21264;-75
2023/04/27 08:38:14;;;;;;;6.43;4.30;;;;;;;14.31;53.77;98459.66;7385662;19;20037;-75
2023/04/27 08:40:42;;;;;;;7.18;5.57;;;;;;;14.26;54.10;98457.53;7377588;19;20290;-75
2023/04/27 08:43:10;;;;;;;8.52;3.88;;;;;;;14.39;52.88;98450.78;7388438;19;19911;-75
2023/04/27 08:45:36;;;;;;;5.82;3.70;;;;;;;14.50;54.10;98453.03;7387193;19;20005;-75
2023/04/27 08:48:03;;;;;;;6.68;4.05;;;;;;;14.42;50.02;98445.94;7385817;19;19949;-75
2023/04/27 08:50:31;;;;;;;6.15;3.53;;;;;;;14.59;53.40;98443.19;7385333;19;19949;-75
2023/04/27 08:52:58;;;;;;;6.85;4.97;;;;;;;14.61;51.88;98441.16;7385036;19;20411;-75
2023/04/27 08:55:25;;;;;;;7.13;4.85;;;;;;;14.65;47.29;98435.28;7385891;19;20550;-75
2023/04/27 08:57:56;;;;;;;7.93;3.65;;;;;;;14.64;44.86;98436.31;7382701;19;19939;-75
2023/04/27 09:00:24;;;;;;;7.70;3.13;;;;;;;14.87;50.52;98438.91;7386634;19;19926;-75
2023/04/27 09:03:13;;;;;;;3.63;3.28;;;;;;;15.10;50.22;98438.84;7388007;19;19938;-75
2023/04/27 09:05:45;;;;;;;3.65;3.00;;;;;;;15.18;47.43;98439.78;7387597;19;19925;-76
2023/04/27 09:08:40;;;;;;;3.72;3.30;;;;;;;14.96;47.75;98437.00;7392376;19;19918;-75
2023/04/27 09:11:06;;;;;;;6.85;4.22;;;;;;;15.07;46.47;98441.88;7385299;19;20288;-75
2023/04/27 09:13:37;;;;;;;6.47;4.13;;;;;;;15.17;48.60;98444.28;7388306;19;20462;-75
2023/04/27 09:16:04;;;;;;;6.32;3.30;;;;;;;15.09;45.40;98441.72;7387087;19;19922;-75
2023/04/27 09:18:35;;;;;;;3.80;3.40;;;;;;;15.24;45.43;98442.50;7393033;19;20008;-75
2023/04/27 09:21:03;;;;;;;3.70;3.38;;;;;;;15.31;48.18;98439.94;7383977;19;19918;-76
2023/04/27 09:23:32;;;;;;;4.63;3.70;;;;;;;15.39;45.08;98442.53;7391272;19;19927;-76
2023/04/27 09:26:01;;;;;;;5.20;3.15;;;;;;;15.48;49.57;98443.25;7385266;19;19919;-75
2023/04/27 09:28:33;;;;;;;5.22;3.67;;;;;;;15.53;46.89;98449.69;7390721;19;19914;-75
2023/04/27 09:31:01;;;;;;;3.97;2.70;;;;;;;15.53;42.99;98447.03;7381342;19;19953;-75
2023/04/27 09:33:29;;;;;;;6.22;2.58;;;;;;;15.57;40.04;98447.47;7387626;19;19922;-75
2023/04/27 09:36:02;;;;;;;4.70;3.70;;;;;;;15.72;44.40;98455.50;7385226;19;20276;-75
2023/04/27 09:38:30;;;;;;;4.28;3.10;;;;;;;15.58;44.66;98451.78;7391033;19;19922;-76
2023/04/27 09:40:57;;;;;;;7.30;2.88;;;;;;;15.84;47.84;98453.97;7385582;19;19943;-76
2023/04/27 09:43:26;;;;;;;5.53;3.45;;;;;;;15.78;43.44;98444.88;7387665;19;20426;-76
2023/04/27 09:45:53;;;;;;;5.05;3.53;;;;;;;15.87;42.87;98442.09;7385409;19;19951;-76
2023/04/27 09:48:21;;;;;;;4.28;2.88;;;;;;;16.00;42.00;98447.59;7387266;19;19915;-76
2023/04/27 09:50:50;;;;;;;3.40;2.85;;;;;;;15.94;40.14;98451.03;7380432;19;20375;-75
2023/04/27 09:53:39;;;;;;;1.80;1.70;;;;;;;16.15;41.19;98436.88;7388568;19;19927;-76
2023/04/27 09:56:27;;;;;;;3.90;2.90;;;;;;;16.07;43.17;98439.69;7378277;19;19959;-77
2023/04/27 09:59:31;;;;;;;5.40;2.63;;;;;;;16.07;39.27;98435.16;7384381;19;19954;-75
2023/04/27 10:02:01;;;;;;;3.45;2.28;;;;;;;16.29;41.64;98437.84;7386266;19;19918;-76
2023/04/27 10:05:01;;;;;;;4.85;2.20;;;;;;;16.40;43.10;98430.16;7383837;19;19921;-75
2023/04/27 10:07:28;;;;;;;3.38;3.00;;;;;;;16.38;41.32;98426.03;7384666;19;20249;-75
2023/04/27 10:10:00;;;;;;;4.47;2.42;;;;;;;16.12;40.11;98429.25;7376570;19;19974;-75
2023/04/27 10:12:33;;;;;;;4.72;2.72;;;;;;;16.22;43.33;98427.94;7388654;19;19933;-75
2023/04/27 10:15:11;;;;;;;5.60;3.00;;;;;;;16.32;42.01;98432.94;7385367;19;19922;-75
2023/04/27 10:17:38;;;;;;;3.00;2.47;;;;;;;16.33;42.56;98431.09;7384125;19;20589;-76
2023/04/27 10:20:08;;;;;;;4.63;3.10;;;;;;;16.40;42.80;98435.50;7385818;19;20431;-75
2023/04/27 10:22:43;;;;;;;4.68;3.38;;;;;;;16.21;41.95;98431.59;7389341;19;19914;-74
2023/04/27 10:25:24;;;;;;;4.97;3.67;;;;;;;16.23;42.74;98432.22;7385234;19;20526;-75
2023/04/27 10:27:57;;;;;;;4.93;3.00;;;;;;;16.42;43.37;98429.94;7385030;19;19939;-75
2023/04/27 10:30:35;;;;;;;7.38;3.22;;;;;;;16.51;41.88;98439.50;7385413;19;19939;-74
2023/04/27 10:33:07;;;;;;;4.68;2.70;;;;;;;16.66;41.03;98437.53;7384294;19;19919;-75
2023/04/27 10:35:39;;;;;;;4.68;2.65;;;;;;;16.69;45.62;98430.97;7385222;19;20301;-75
2023/04/27 10:38:19;;;;;;;5.15;3.25;;;;;;;16.83;45.22;98429.28;7384736;19;21101;-75
2023/04/27 10:40:57;;;;;;;5.68;3.35;;;;;;;16.98;42.66;98427.34;7383003;19;19953;-75
2023/04/27 10:43:28;;;;;;;7.80;4.72;;;;;;;17.24;41.20;98424.00;7384347;19;20440;-75
2023/04/27 10:46:06;;;;;;;5.70;3.50;;;;;;;17.39;41.49;98413.19;7385610;19;19922;-75
2023/04/27 10:48:33;;;;;;;5.35;3.58;;;;;;;17.70;42.49;98409.19;7379075;19;19915;-76
2023/04/27 10:51:00;;;;;;;5.28;2.78;;;;;;;17.75;40.48;98414.78;7376449;19;19944;-77
2023/04/27 10:53:33;;;;;;;4.20;2.92;;;;;;;17.93;43.00;98409.72;7388839;19;20277;-77
2023/04/27 10:55:59;;;;;;;4.43;3.38;;;;;;;18.23;41.07;98400.50;7384612;19;19943;-77
2023/04/27 10:58:26;;;;;;;6.05;3.33;;;;;;;18.13;39.02;98400.88;7386432;19;19923;-76
2023/04/27 11:01:11;;;;;;;4.35;3.60;;;;;;;18.18;39.80;98403.78;7384456;19;19918;-75
2023/04/27 11:03:38;;;;;;;6.47;3.40;;;;;;;18.12;38.07;98409.97;7386983;19;19918;-74
2023/04/27 11:06:05;;;;;;;6.97;4.20;;;;;;;18.14;37.05;98408.72;7384035;19;19928;-75
2023/04/27 11:08:35;;;;;;;6.10;3.65;;;;;;;17.95;38.44;98396.94;7387581;19;19918;-75
2023/04/27 11:11:04;;;;;;;5.10;3.42;;;;;;;17.99;39.89;98405.41;7380657;19;19996;-75
2023/04/27 11:13:32;;;;;;;5.20;3.33;;;;;;;17.90;38.06;98404.75;7387826;19;19918;-75
2023/04/27 11:15:59;;;;;;;4.90;3.60;;;;;;;18.14;37.57;98403.38;7384163;19;19923;-74
2023/04/27 11:18:30;;;;;;;5.03;3.60;;;;;;;18.84;39.66;98395.78;7387480;19;20578;-74
2023/04/27 11:21:16;;;;;;;5.05;3.45;;;;;;;19.61;38.59;98400.50;7382670;19;20325;-74
2023/04/27 11:23:43;;;;;;;5.65;4.15;;;;;;;20.11;34.47;98395.31;7382705;19;19922;-74
2023/04/27 11:26:10;;;;;;;6.35;3.60;;;;;;;20.44;35.51;98402.34;7382769;19;19914;-75
2023/04/27 11:28:37;;;;;;;5.72;4.18;;;;;;;20.47;32.53;98399.22;7385572;19;19924;-74
2023/04/27 11:31:05;;;;;;;7.63;3.88;;;;;;;21.14;33.91;98394.06;7380416;19;19943;-75
2023/04/27 11:33:32;;;;;;;5.95;3.70;;;;;;;21.63;33.51;98386.91;7381820;19;19922;-74
2023/04/27 11:35:59;;;;;;;6.57;4.05;;;;;;;21.74;30.94;98382.63;7383545;19;19939;-75
2023/04/27 11:38:32;;;;;;;6.65;4.15;;;;;;;21.37;31.32;98378.06;7386667;19;19930;-74
2023/04/27 11:41:02;;;;;;;6.15;4.63;;;;;;;22.20;32.76;98383.88;7381404;19;20695;-75
2023/04/27 11:43:29;;;;;;;6.18;4.03;;;;;;;22.90;32.64;98383.13;7386098;19;19918;-76